EST,Max TemperatureF,Mean TemperatureF,Min TemperatureF,Max Dew PointF,MeanDew PointF,Min DewpointF,Max Humidity, Mean Humidity, Min Humidity, Max Sea Level PressureIn, Mean Sea Level PressureIn, Min Sea Level PressureIn, Max VisibilityMiles, Mean VisibilityMiles, Min VisibilityMiles, Max Wind SpeedMPH, Mean Wind SpeedMPH, Max Gust SpeedMPH,PrecipitationIn, CloudCover, Events, WindDirDegrees
2013-1-1,48,44,39,37,30,23,76,61,46,30.01,29.96,29.88,10,10,10,6,1,,0.00,5,,201
2013-1-2,41,36,30,30,26,16,75,65,48,30.20,30.08,29.96,10,10,10,8,3,,0.00,5,Rain,46
2013-1-3,41,34,28,25,19,16,86,57,41,30.23,30.18,30.13,10,10,10,7,2,,0.00,3,,212
2013-1-4,46,34,23,21,19,18,80,51,34,30.22,30.17,30.11,10,10,10,13,5,18,0.00,0,,251
2013-1-5,50,39,28,27,20,18,69,49,30,30.35,30.25,30.16,10,10,10,9,3,,0.00,1,Rain,212
2013-1-6,53,44,35,34,29,27,81,57,35,30.17,30.09,30.02,10,10,10,10,4,17,0.00,4,Rain,250
2013-1-7,48,37,26,30,27,25,93,64,43,30.42,30.34,30.14,10,10,10,12,3,,0.00,2,,16
2013-1-8,51,38,24,34,29,21,93,76,50,30.42,30.38,30.35,10,10,5,8,2,,0.00,1,,189
2013-1-9,60,44,28,48,40,28,100,74,59,30.37,30.33,30.25,10,9,3,9,3,,0.00,1,,223
2013-1-10,60,46,32,45,31,27,93,59,29,30.57,30.48,30.38,10,10,10,9,3,,0.00,0,,66
2013-1-11,44,38,33,43,36,28,93,81,57,30.47,30.27,30.09,10,6,0,7,2,,0.06,7,Fog-Rain,205
2013-1-12,48,45,42,46,44,41,100,95,93,30.16,30.12,30.08,10,2,0,6,1,,0.01,8,Fog,110
2013-1-13,69,58,46,61,54,46,100,90,73,30.11,30.04,29.98,10,5,0,8,2,,0.01,5,Fog,186
2013-1-14,64,53,39,61,51,36,94,85,77,30.26,30.12,29.98,10,9,4,15,6,26,0.19,7,Rain,26
2013-1-15,39,38,37,37,37,36,93,92,87,30.32,30.23,30.12,10,7,2,10,6,,1.18,8,Rain,20
2013-1-16,44,40,35,43,38,34,100,94,87,30.11,30.00,29.86,10,7,1,10,3,16,0.45,8,Rain,1
2013-1-17,44,38,33,43,39,32,100,93,87,30.11,30.04,29.96,10,5,0,8,2,10,0.63,8,Fog-Rain-Snow,54
2013-1-18,39,34,28,32,26,19,100,75,45,30.48,30.36,30.08,10,9,2,9,3,,0.46,0,,198
2013-1-19,53,42,30,28,26,25,80,60,35,30.42,30.25,30.02,10,10,10,12,6,20,0.00,0,,200
2013-1-20,60,48,37,32,25,10,65,45,25,30.05,29.94,29.86,10,10,10,18,7,32,0.00,0,,238
2013-1-21,53,38,24,27,16,7,74,40,24,30.07,29.94,29.76,10,10,10,18,6,30,0.00,0,,238
2013-1-22,33,22,12,9,-1,-8,67,34,22,30.27,30.14,29.92,10,10,10,17,9,24,0.00,0,,295
2013-1-23,32,19,6,19,3,-2,93,52,23,30.32,30.22,30.09,10,10,1,14,2,21,0.00,4,Snow,260
2013-1-24,28,18,8,19,10,0,93,67,31,30.51,30.29,30.02,10,8,2,15,6,22,0.02,4,Snow,356
2013-1-25,24,15,6,19,10,1,86,73,43,30.50,30.27,30.05,10,10,1,10,2,,0.00,5,Snow,188
2013-1-26,39,30,21,25,22,18,93,73,49,30.41,30.20,30.04,10,10,10,6,2,,0.00,7,,348
2013-1-27,39,30,21,25,21,18,93,67,45,30.58,30.49,30.42,10,10,10,8,1,,0.00,3,,213
2013-1-28,51,42,32,43,34,23,93,77,62,30.46,30.26,30.08,10,7,2,13,5,17,0.23,5,,204
2013-1-29,75,58,42,54,47,39,87,66,47,30.13,30.06,29.98,10,10,5,10,5,,0.00,1,,203
2013-1-30,71,66,60,63,59,54,88,76,68,29.98,29.68,29.25,10,10,7,18,9,32,0.60,7,Rain,187
2013-1-31,64,47,30,61,26,12,88,49,31,29.92,29.64,29.24,10,10,7,28,14,39,0.26,3,Rain,262